sensor_id;sensor_type;location;lat;lon;timestamp;P1;durP1;ratioP1;P2;durP2;ratioP2
25125;SDS011;13106;50.808;5.670;2022-09-21T00:00:37;10.02;;;7.60;;
25125;SDS011;13106;50.808;5.670;2022-09-21T00:03:03;12.68;;;7.82;;
25125;SDS011;13106;50.808;5.670;2022-09-21T00:05:30;12.20;;;9.27;;
25125;SDS011;13106;50.808;5.670;2022-09-21T00:07:58;13.15;;;7.70;;
25125;SDS011;13106;50.808;5.670;2022-09-21T00:10:24;12.93;;;7.22;;
25125;SDS011;13106;50.808;5.670;2022-09-21T00:12:51;12.80;;;7.55;;
25125;SDS011;13106;50.808;5.670;2022-09-21T00:15:17;13.15;;;6.38;;
25125;SDS011;13106;50.808;5.670;2022-09-21T00:17:43;13.05;;;7.20;;
25125;SDS011;13106;50.808;5.670;2022-09-21T00:20:10;21.15;;;8.05;;
25125;SDS011;13106;50.808;5.670;2022-09-21T00:22:36;12.45;;;6.88;;
25125;SDS011;13106;50.808;5.670;2022-09-21T00:25:02;16.67;;;6.85;;
25125;SDS011;13106;50.808;5.670;2022-09-21T00:27:29;14.15;;;6.85;;
25125;SDS011;13106;50.808;5.670;2022-09-21T00:29:56;18.55;;;7.90;;
25125;SDS011;13106;50.808;5.670;2022-09-21T00:32:22;15.68;;;7.88;;
25125;SDS011;13106;50.808;5.670;2022-09-21T00:34:49;11.98;;;7.43;;
25125;SDS011;13106;50.808;5.670;2022-09-21T00:37:16;18.63;;;7.55;;
25125;SDS011;13106;50.808;5.670;2022-09-21T00:39:42;12.70;;;7.32;;
25125;SDS011;13106;50.808;5.670;2022-09-21T00:42:09;19.38;;;7.75;;
25125;SDS011;13106;50.808;5.670;2022-09-21T00:44:35;18.33;;;8.27;;
25125;SDS011;13106;50.808;5.670;2022-09-21T00:47:03;20.67;;;8.85;;
25125;SDS011;13106;50.808;5.670;2022-09-21T00:49:32;13.13;;;8.68;;
25125;SDS011;13106;50.808;5.670;2022-09-21T00:52:00;14.73;;;8.18;;
25125;SDS011;13106;50.808;5.670;2022-09-21T00:54:28;13.95;;;8.20;;
25125;SDS011;13106;50.808;5.670;2022-09-21T00:56:56;14.10;;;7.47;;
25125;SDS011;13106;50.808;5.670;2022-09-21T00:59:25;10.98;;;7.35;;
25125;SDS011;13106;50.808;5.670;2022-09-21T01:01:51;20.48;;;8.52;;
25125;SDS011;13106;50.808;5.670;2022-09-21T01:04:18;16.05;;;8.50;;
25125;SDS011;13106;50.808;5.670;2022-09-21T01:06:45;24.63;;;8.50;;
25125;SDS011;13106;50.808;5.670;2022-09-21T01:09:11;23.10;;;9.10;;
25125;SDS011;13106;50.808;5.670;2022-09-21T01:22:09;17.88;;;10.77;;
25125;SDS011;13106;50.808;5.670;2022-09-21T01:29:45;18.35;;;10.88;;
25125;SDS011;13106;50.808;5.670;2022-09-21T01:37:31;24.75;;;11.23;;
25125;SDS011;13106;50.808;5.670;2022-09-21T01:39:59;16.73;;;10.95;;
25125;SDS011;13106;50.808;5.670;2022-09-21T01:42:26;23.02;;;10.30;;
25125;SDS011;13106;50.808;5.670;2022-09-21T01:44:53;25.35;;;12.35;;
25125;SDS011;13106;50.808;5.670;2022-09-21T01:47:20;27.02;;;11.25;;
25125;SDS011;13106;50.808;5.670;2022-09-21T01:49:49;22.02;;;10.93;;
25125;SDS011;13106;50.808;5.670;2022-09-21T01:52:18;21.70;;;11.55;;
25125;SDS011;13106;50.808;5.670;2022-09-21T01:54:46;21.65;;;11.55;;
25125;SDS011;13106;50.808;5.670;2022-09-21T01:57:20;14.93;;;9.07;;
25125;SDS011;13106;50.808;5.670;2022-09-21T02:02:19;19.38;;;9.75;;
25125;SDS011;13106;50.808;5.670;2022-09-21T02:04:46;16.60;;;8.68;;
25125;SDS011;13106;50.808;5.670;2022-09-21T02:07:12;18.23;;;8.38;;
25125;SDS011;13106;50.808;5.670;2022-09-21T02:09:41;15.10;;;9.15;;
25125;SDS011;13106;50.808;5.670;2022-09-21T02:12:07;21.25;;;10.60;;
25125;SDS011;13106;50.808;5.670;2022-09-21T02:14:33;17.90;;;10.25;;
25125;SDS011;13106;50.808;5.670;2022-09-21T02:19:44;15.50;;;8.02;;
25125;SDS011;13106;50.808;5.670;2022-09-21T02:25:06;16.25;;;9.10;;
25125;SDS011;13106;50.808;5.670;2022-09-21T02:27:39;14.40;;;10.00;;
25125;SDS011;13106;50.808;5.670;2022-09-21T02:30:18;16.38;;;9.70;;
25125;SDS011;13106;50.808;5.670;2022-09-21T02:38:19;16.20;;;10.15;;
25125;SDS011;13106;50.808;5.670;2022-09-21T02:41:00;12.70;;;10.30;;
25125;SDS011;13106;50.808;5.670;2022-09-21T02:43:36;15.80;;;10.20;;
25125;SDS011;13106;50.808;5.670;2022-09-21T02:46:15;15.95;;;10.50;;
25125;SDS011;13106;50.808;5.670;2022-09-21T02:48:48;17.30;;;11.27;;
25125;SDS011;13106;50.808;5.670;2022-09-21T02:51:32;13.63;;;10.93;;
25125;SDS011;13106;50.808;5.670;2022-09-21T02:54:01;14.27;;;10.40;;
25125;SDS011;13106;50.808;5.670;2022-09-21T02:56:29;13.60;;;10.27;;
25125;SDS011;13106;50.808;5.670;2022-09-21T02:58:56;13.70;;;10.25;;
25125;SDS011;13106;50.808;5.670;2022-09-21T03:01:24;15.45;;;10.48;;
25125;SDS011;13106;50.808;5.670;2022-09-21T03:03:50;13.95;;;10.38;;
25125;SDS011;13106;50.808;5.670;2022-09-21T03:06:16;17.30;;;10.07;;
25125;SDS011;13106;50.808;5.670;2022-09-21T03:08:42;13.73;;;10.10;;
25125;SDS011;13106;50.808;5.670;2022-09-21T03:11:08;14.93;;;9.43;;
25125;SDS011;13106;50.808;5.670;2022-09-21T03:13:35;15.50;;;9.68;;
25125;SDS011;13106;50.808;5.670;2022-09-21T03:16:05;13.18;;;9.15;;
25125;SDS011;13106;50.808;5.670;2022-09-21T03:18:31;14.40;;;9.57;;
25125;SDS011;13106;50.808;5.670;2022-09-21T03:20:58;12.68;;;9.63;;
25125;SDS011;13106;50.808;5.670;2022-09-21T03:23:25;13.15;;;9.68;;
25125;SDS011;13106;50.808;5.670;2022-09-21T03:25:51;15.55;;;9.93;;
25125;SDS011;13106;50.808;5.670;2022-09-21T03:28:18;14.30;;;9.63;;
25125;SDS011;13106;50.808;5.670;2022-09-21T03:30:45;13.68;;;9.50;;
25125;SDS011;13106;50.808;5.670;2022-09-21T03:33:11;13.15;;;9.90;;
25125;SDS011;13106;50.808;5.670;2022-09-21T03:35:37;17.83;;;11.70;;
25125;SDS011;13106;50.808;5.670;2022-09-21T03:38:04;19.63;;;11.82;;
25125;SDS011;13106;50.808;5.670;2022-09-21T03:40:30;13.02;;;10.00;;
25125;SDS011;13106;50.808;5.670;2022-09-21T03:42:56;18.73;;;9.98;;
25125;SDS011;13106;50.808;5.670;2022-09-21T03:45:22;18.92;;;10.80;;
25125;SDS011;13106;50.808;5.670;2022-09-21T03:47:57;20.33;;;10.48;;
25125;SDS011;13106;50.808;5.670;2022-09-21T03:50:24;13.15;;;9.75;;
25125;SDS011;13106;50.808;5.670;2022-09-21T03:52:52;13.77;;;9.95;;
25125;SDS011;13106;50.808;5.670;2022-09-21T03:55:18;15.80;;;10.20;;
25125;SDS011;13106;50.808;5.670;2022-09-21T03:57:44;19.92;;;11.73;;
25125;SDS011;13106;50.808;5.670;2022-09-21T04:00:11;18.27;;;12.48;;
25125;SDS011;13106;50.808;5.670;2022-09-21T04:02:38;19.35;;;11.95;;
25125;SDS011;13106;50.808;5.670;2022-09-21T04:05:08;18.67;;;12.95;;
25125;SDS011;13106;50.808;5.670;2022-09-21T04:07:35;25.45;;;14.65;;
25125;SDS011;13106;50.808;5.670;2022-09-21T04:10:05;17.60;;;11.98;;
25125;SDS011;13106;50.808;5.670;2022-09-21T04:12:33;20.33;;;12.82;;
25125;SDS011;13106;50.808;5.670;2022-09-21T04:15:00;16.38;;;12.07;;
25125;SDS011;13106;50.808;5.670;2022-09-21T04:17:26;14.20;;;10.50;;
25125;SDS011;13106;50.808;5.670;2022-09-21T04:19:53;14.35;;;10.65;;
25125;SDS011;13106;50.808;5.670;2022-09-21T04:22:19;13.50;;;10.63;;
25125;SDS011;13106;50.808;5.670;2022-09-21T04:24:45;14.55;;;10.85;;
25125;SDS011;13106;50.808;5.670;2022-09-21T04:27:11;15.07;;;10.60;;
25125;SDS011;13106;50.808;5.670;2022-09-21T04:29:37;18.00;;;12.20;;
25125;SDS011;13106;50.808;5.670;2022-09-21T04:32:03;16.17;;;11.00;;
25125;SDS011;13106;50.808;5.670;2022-09-21T04:34:30;17.58;;;11.07;;
25125;SDS011;13106;50.808;5.670;2022-09-21T04:36:57;15.07;;;10.43;;
25125;SDS011;13106;50.808;5.670;2022-09-21T04:39:23;11.90;;;9.27;;
25125;SDS011;13106;50.808;5.670;2022-09-21T04:41:49;14.52;;;10.38;;
25125;SDS011;13106;50.808;5.670;2022-09-21T04:44:15;19.13;;;13.73;;
25125;SDS011;13106;50.808;5.670;2022-09-21T04:46:45;13.77;;;12.50;;
25125;SDS011;13106;50.808;5.670;2022-09-21T04:49:11;17.13;;;12.35;;
25125;SDS011;13106;50.808;5.670;2022-09-21T04:51:37;20.00;;;15.35;;
25125;SDS011;13106;50.808;5.670;2022-09-21T04:54:03;23.55;;;16.42;;
25125;SDS011;13106;50.808;5.670;2022-09-21T04:56:30;52.97;;;16.50;;
25125;SDS011;13106;50.808;5.670;2022-09-21T04:58:56;20.85;;;12.55;;
25125;SDS011;13106;50.808;5.670;2022-09-21T05:01:22;16.80;;;11.85;;
25125;SDS011;13106;50.808;5.670;2022-09-21T05:03:48;26.30;;;15.00;;
25125;SDS011;13106;50.808;5.670;2022-09-21T05:06:14;22.13;;;16.20;;
25125;SDS011;13106;50.808;5.670;2022-09-21T05:08:40;13.75;;;10.07;;
25125;SDS011;13106;50.808;5.670;2022-09-21T05:11:24;13.52;;;10.18;;
25125;SDS011;13106;50.808;5.670;2022-09-21T05:13:51;14.90;;;10.02;;
25125;SDS011;13106;50.808;5.670;2022-09-21T05:16:17;15.90;;;9.77;;
25125;SDS011;13106;50.808;5.670;2022-09-21T05:18:43;14.80;;;9.43;;
25125;SDS011;13106;50.808;5.670;2022-09-21T05:21:10;15.63;;;10.43;;
25125;SDS011;13106;50.808;5.670;2022-09-21T05:23:36;13.35;;;8.98;;
25125;SDS011;13106;50.808;5.670;2022-09-21T05:26:02;19.70;;;9.82;;
25125;SDS011;13106;50.808;5.670;2022-09-21T05:28:29;18.75;;;10.95;;
25125;SDS011;13106;50.808;5.670;2022-09-21T05:33:36;16.02;;;10.40;;
25125;SDS011;13106;50.808;5.670;2022-09-21T05:36:19;12.48;;;9.82;;
25125;SDS011;13106;50.808;5.670;2022-09-21T05:38:52;10.35;;;9.25;;
25125;SDS011;13106;50.808;5.670;2022-09-21T05:41:18;13.68;;;10.85;;
25125;SDS011;13106;50.808;5.670;2022-09-21T05:43:44;15.65;;;10.70;;
25125;SDS011;13106;50.808;5.670;2022-09-21T05:46:12;12.85;;;9.88;;
25125;SDS011;13106;50.808;5.670;2022-09-21T05:48:42;11.32;;;9.27;;
25125;SDS011;13106;50.808;5.670;2022-09-21T05:53:49;16.33;;;10.07;;
25125;SDS011;13106;50.808;5.670;2022-09-21T06:04:13;14.85;;;9.63;;
25125;SDS011;13106;50.808;5.670;2022-09-21T06:06:40;14.25;;;10.32;;
25125;SDS011;13106;50.808;5.670;2022-09-21T06:09:06;20.05;;;9.70;;
25125;SDS011;13106;50.808;5.670;2022-09-21T06:11:32;19.75;;;10.98;;
25125;SDS011;13106;50.808;5.670;2022-09-21T06:13:59;30.35;;;11.93;;
25125;SDS011;13106;50.808;5.670;2022-09-21T06:16:26;18.50;;;11.63;;
25125;SDS011;13106;50.808;5.670;2022-09-21T06:18:53;24.90;;;12.00;;
25125;SDS011;13106;50.808;5.670;2022-09-21T06:21:19;27.70;;;13.00;;
25125;SDS011;13106;50.808;5.670;2022-09-21T06:23:45;27.02;;;11.65;;
25125;SDS011;13106;50.808;5.670;2022-09-21T06:26:10;23.45;;;13.10;;
25125;SDS011;13106;50.808;5.670;2022-09-21T06:28:36;18.90;;;11.93;;
25125;SDS011;13106;50.808;5.670;2022-09-21T06:31:03;19.77;;;11.40;;
25125;SDS011;13106;50.808;5.670;2022-09-21T06:33:29;18.70;;;11.80;;
25125;SDS011;13106;50.808;5.670;2022-09-21T06:35:58;19.98;;;11.82;;
25125;SDS011;13106;50.808;5.670;2022-09-21T06:38:25;18.80;;;10.95;;
25125;SDS011;13106;50.808;5.670;2022-09-21T06:40:52;26.05;;;11.57;;
25125;SDS011;13106;50.808;5.670;2022-09-21T06:43:18;25.98;;;13.15;;
25125;SDS011;13106;50.808;5.670;2022-09-21T06:45:54;24.10;;;12.02;;
25125;SDS011;13106;50.808;5.670;2022-09-21T06:48:20;28.98;;;12.25;;
25125;SDS011;13106;50.808;5.670;2022-09-21T06:50:47;20.50;;;10.85;;
25125;SDS011;13106;50.808;5.670;2022-09-21T06:53:14;25.92;;;12.32;;
25125;SDS011;13106;50.808;5.670;2022-09-21T06:55:41;28.63;;;12.15;;
25125;SDS011;13106;50.808;5.670;2022-09-21T06:58:07;24.92;;;12.55;;
25125;SDS011;13106;50.808;5.670;2022-09-21T07:00:33;29.05;;;12.65;;
25125;SDS011;13106;50.808;5.670;2022-09-21T07:02:59;24.30;;;12.48;;
25125;SDS011;13106;50.808;5.670;2022-09-21T07:05:26;22.58;;;13.10;;
25125;SDS011;13106;50.808;5.670;2022-09-21T07:07:56;22.15;;;12.88;;
25125;SDS011;13106;50.808;5.670;2022-09-21T07:10:22;25.38;;;12.32;;
25125;SDS011;13106;50.808;5.670;2022-09-21T07:12:49;34.95;;;13.18;;
25125;SDS011;13106;50.808;5.670;2022-09-21T07:15:16;28.92;;;12.65;;
25125;SDS011;13106;50.808;5.670;2022-09-21T07:17:43;22.92;;;10.30;;
25125;SDS011;13106;50.808;5.670;2022-09-21T07:20:10;26.77;;;12.30;;
25125;SDS011;13106;50.808;5.670;2022-09-21T07:22:36;34.65;;;12.38;;
25125;SDS011;13106;50.808;5.670;2022-09-21T07:25:03;41.83;;;14.18;;
25125;SDS011;13106;50.808;5.670;2022-09-21T07:27:30;30.90;;;12.68;;
25125;SDS011;13106;50.808;5.670;2022-09-21T07:29:56;37.05;;;14.13;;
25125;SDS011;13106;50.808;5.670;2022-09-21T07:32:23;33.33;;;14.60;;
25125;SDS011;13106;50.808;5.670;2022-09-21T07:34:50;33.28;;;13.43;;
25125;SDS011;13106;50.808;5.670;2022-09-21T07:37:20;24.67;;;13.18;;
25125;SDS011;13106;50.808;5.670;2022-09-21T07:39:47;30.48;;;13.63;;
25125;SDS011;13106;50.808;5.670;2022-09-21T07:42:13;33.85;;;12.82;;
25125;SDS011;13106;50.808;5.670;2022-09-21T07:44:39;35.85;;;13.70;;
25125;SDS011;13106;50.808;5.670;2022-09-21T07:47:06;31.60;;;13.63;;
25125;SDS011;13106;50.808;5.670;2022-09-21T07:49:32;37.08;;;14.07;;
25125;SDS011;13106;50.808;5.670;2022-09-21T07:51:59;32.65;;;12.93;;
25125;SDS011;13106;50.808;5.670;2022-09-21T07:54:25;24.33;;;13.57;;
25125;SDS011;13106;50.808;5.670;2022-09-21T07:56:50;23.83;;;13.85;;
25125;SDS011;13106;50.808;5.670;2022-09-21T07:59:52;26.35;;;15.18;;
25125;SDS011;13106;50.808;5.670;2022-09-21T08:02:22;24.42;;;13.82;;
25125;SDS011;13106;50.808;5.670;2022-09-21T08:04:48;20.92;;;13.48;;
25125;SDS011;13106;50.808;5.670;2022-09-21T08:07:14;22.02;;;11.73;;
25125;SDS011;13106;50.808;5.670;2022-09-21T08:09:40;25.73;;;13.02;;
25125;SDS011;13106;50.808;5.670;2022-09-21T08:12:06;34.28;;;14.18;;
25125;SDS011;13106;50.808;5.670;2022-09-21T08:14:33;28.23;;;13.48;;
25125;SDS011;13106;50.808;5.670;2022-09-21T08:17:00;20.77;;;13.23;;
25125;SDS011;13106;50.808;5.670;2022-09-21T08:19:26;37.08;;;15.18;;
25125;SDS011;13106;50.808;5.670;2022-09-21T08:21:52;33.90;;;14.88;;
25125;SDS011;13106;50.808;5.670;2022-09-21T08:24:19;35.58;;;15.88;;
25125;SDS011;13106;50.808;5.670;2022-09-21T08:26:45;34.63;;;16.48;;
25125;SDS011;13106;50.808;5.670;2022-09-21T08:29:11;26.52;;;14.35;;
25125;SDS011;13106;50.808;5.670;2022-09-21T08:31:38;31.23;;;16.80;;
25125;SDS011;13106;50.808;5.670;2022-09-21T08:34:04;38.10;;;17.98;;
25125;SDS011;13106;50.808;5.670;2022-09-21T08:36:30;35.90;;;20.00;;
25125;SDS011;13106;50.808;5.670;2022-09-21T08:38:57;31.95;;;16.92;;
25125;SDS011;13106;50.808;5.670;2022-09-21T08:41:28;40.28;;;17.80;;
25125;SDS011;13106;50.808;5.670;2022-09-21T08:44:02;25.15;;;15.23;;
25125;SDS011;13106;50.808;5.670;2022-09-21T08:46:29;31.83;;;17.63;;
25125;SDS011;13106;50.808;5.670;2022-09-21T08:48:58;28.17;;;15.15;;
25125;SDS011;13106;50.808;5.670;2022-09-21T08:51:27;23.55;;;13.82;;
25125;SDS011;13106;50.808;5.670;2022-09-21T08:53:56;24.90;;;13.17;;
25125;SDS011;13106;50.808;5.670;2022-09-21T08:56:23;25.00;;;11.77;;
25125;SDS011;13106;50.808;5.670;2022-09-21T08:58:51;22.48;;;12.57;;
25125;SDS011;13106;50.808;5.670;2022-09-21T09:09:09;19.13;;;11.63;;
25125;SDS011;13106;50.808;5.670;2022-09-21T09:22:03;22.27;;;9.73;;
25125;SDS011;13106;50.808;5.670;2022-09-21T09:24:31;16.88;;;8.07;;
25125;SDS011;13106;50.808;5.670;2022-09-21T09:27:03;14.93;;;8.00;;
25125;SDS011;13106;50.808;5.670;2022-09-21T09:32:03;14.27;;;6.95;;
25125;SDS011;13106;50.808;5.670;2022-09-21T09:34:34;16.58;;;8.07;;
25125;SDS011;13106;50.808;5.670;2022-09-21T09:37:14;14.40;;;6.47;;
25125;SDS011;13106;50.808;5.670;2022-09-21T09:39:41;16.17;;;6.97;;
25125;SDS011;13106;50.808;5.670;2022-09-21T09:50:22;15.52;;;6.40;;
25125;SDS011;13106;50.808;5.670;2022-09-21T09:52:51;9.93;;;4.60;;
25125;SDS011;13106;50.808;5.670;2022-09-21T09:57:44;10.80;;;5.63;;
25125;SDS011;13106;50.808;5.670;2022-09-21T10:00:12;12.27;;;7.20;;
25125;SDS011;13106;50.808;5.670;2022-09-21T10:02:45;12.05;;;6.32;;
25125;SDS011;13106;50.808;5.670;2022-09-21T10:05:18;14.45;;;5.80;;
25125;SDS011;13106;50.808;5.670;2022-09-21T10:07:45;14.40;;;5.50;;
25125;SDS011;13106;50.808;5.670;2022-09-21T10:12:47;13.13;;;5.50;;
25125;SDS011;13106;50.808;5.670;2022-09-21T10:15:13;14.95;;;5.90;;
25125;SDS011;13106;50.808;5.670;2022-09-21T10:17:41;16.90;;;6.10;;
25125;SDS011;13106;50.808;5.670;2022-09-21T10:20:12;15.52;;;5.38;;
25125;SDS011;13106;50.808;5.670;2022-09-21T10:22:41;9.95;;;5.13;;
25125;SDS011;13106;50.808;5.670;2022-09-21T10:25:16;9.63;;;3.53;;
25125;SDS011;13106;50.808;5.670;2022-09-21T10:27:44;9.50;;;3.88;;
25125;SDS011;13106;50.808;5.670;2022-09-21T10:32:57;7.85;;;4.07;;
25125;SDS011;13106;50.808;5.670;2022-09-21T10:35:23;7.15;;;4.93;;
25125;SDS011;13106;50.808;5.670;2022-09-21T10:38:09;9.15;;;4.72;;
25125;SDS011;13106;50.808;5.670;2022-09-21T10:40:36;9.20;;;4.88;;
25125;SDS011;13106;50.808;5.670;2022-09-21T10:43:02;7.68;;;2.70;;
25125;SDS011;13106;50.808;5.670;2022-09-21T10:45:29;6.65;;;3.30;;
25125;SDS011;13106;50.808;5.670;2022-09-21T10:48:06;6.22;;;2.75;;
25125;SDS011;13106;50.808;5.670;2022-09-21T10:53:00;11.15;;;3.85;;
25125;SDS011;13106;50.808;5.670;2022-09-21T10:55:28;9.40;;;3.00;;
25125;SDS011;13106;50.808;5.670;2022-09-21T10:57:54;9.90;;;2.50;;
25125;SDS011;13106;50.808;5.670;2022-09-21T11:02:53;7.53;;;2.15;;
25125;SDS011;13106;50.808;5.670;2022-09-21T11:05:24;10.95;;;2.40;;
25125;SDS011;13106;50.808;5.670;2022-09-21T11:07:53;6.63;;;2.13;;
25125;SDS011;13106;50.808;5.670;2022-09-21T11:10:23;4.55;;;1.55;;
25125;SDS011;13106;50.808;5.670;2022-09-21T11:12:59;4.60;;;1.80;;
25125;SDS011;13106;50.808;5.670;2022-09-21T11:15:45;6.32;;;1.58;;
25125;SDS011;13106;50.808;5.670;2022-09-21T11:18:17;7.47;;;2.15;;
25125;SDS011;13106;50.808;5.670;2022-09-21T11:23:22;7.53;;;1.80;;
25125;SDS011;13106;50.808;5.670;2022-09-21T11:31:04;5.10;;;1.55;;
25125;SDS011;13106;50.808;5.670;2022-09-21T11:43:59;8.07;;;2.70;;
25125;SDS011;13106;50.808;5.670;2022-09-21T11:49:16;5.50;;;2.22;;
25125;SDS011;13106;50.808;5.670;2022-09-21T12:07:38;6.50;;;2.25;;
25125;SDS011;13106;50.808;5.670;2022-09-21T12:12:37;7.22;;;1.90;;
25125;SDS011;13106;50.808;5.670;2022-09-21T12:15:11;5.10;;;1.98;;
25125;SDS011;13106;50.808;5.670;2022-09-21T12:22:34;6.60;;;2.35;;
25125;SDS011;13106;50.808;5.670;2022-09-21T12:25:13;5.35;;;1.63;;
25125;SDS011;13106;50.808;5.670;2022-09-21T12:27:42;5.07;;;1.92;;
25125;SDS011;13106;50.808;5.670;2022-09-21T12:30:17;10.77;;;2.55;;
25125;SDS011;13106;50.808;5.670;2022-09-21T12:32:53;7.80;;;2.50;;
25125;SDS011;13106;50.808;5.670;2022-09-21T12:35:24;7.70;;;2.00;;
25125;SDS011;13106;50.808;5.670;2022-09-21T12:45:41;8.05;;;1.98;;
25125;SDS011;13106;50.808;5.670;2022-09-21T12:50:55;5.75;;;2.10;;
25125;SDS011;13106;50.808;5.670;2022-09-21T12:53:26;6.18;;;1.65;;
25125;SDS011;13106;50.808;5.670;2022-09-21T12:56:03;5.60;;;1.67;;
25125;SDS011;13106;50.808;5.670;2022-09-21T13:01:09;8.48;;;2.00;;
25125;SDS011;13106;50.808;5.670;2022-09-21T13:08:52;3.42;;;1.35;;
25125;SDS011;13106;50.808;5.670;2022-09-21T13:11:19;4.43;;;1.58;;
25125;SDS011;13106;50.808;5.670;2022-09-21T13:13:46;6.38;;;1.60;;
25125;SDS011;13106;50.808;5.670;2022-09-21T13:16:29;5.95;;;2.00;;
25125;SDS011;13106;50.808;5.670;2022-09-21T13:18:57;5.07;;;1.40;;
25125;SDS011;13106;50.808;5.670;2022-09-21T13:21:31;6.40;;;1.83;;
25125;SDS011;13106;50.808;5.670;2022-09-21T13:24:02;4.28;;;1.60;;
25125;SDS011;13106;50.808;5.670;2022-09-21T13:26:34;3.90;;;1.52;;
25125;SDS011;13106;50.808;5.670;2022-09-21T13:29:03;5.20;;;1.50;;
25125;SDS011;13106;50.808;5.670;2022-09-21T13:36:40;6.85;;;1.98;;
25125;SDS011;13106;50.808;5.670;2022-09-21T13:41:34;5.72;;;1.63;;
25125;SDS011;13106;50.808;5.670;2022-09-21T13:44:01;3.55;;;1.15;;
25125;SDS011;13106;50.808;5.670;2022-09-21T13:54:28;6.60;;;1.50;;
25125;SDS011;13106;50.808;5.670;2022-09-21T13:57:03;6.25;;;1.60;;
25125;SDS011;13106;50.808;5.670;2022-09-21T13:59:29;7.22;;;1.45;;
25125;SDS011;13106;50.808;5.670;2022-09-21T14:01:57;4.32;;;1.20;;
25125;SDS011;13106;50.808;5.670;2022-09-21T14:04:27;5.65;;;1.38;;
25125;SDS011;13106;50.808;5.670;2022-09-21T14:06:54;7.60;;;1.58;;
25125;SDS011;13106;50.808;5.670;2022-09-21T14:09:28;4.00;;;1.40;;
25125;SDS011;13106;50.808;5.670;2022-09-21T14:11:57;4.32;;;1.42;;
25125;SDS011;13106;50.808;5.670;2022-09-21T14:14:33;6.05;;;1.20;;
25125;SDS011;13106;50.808;5.670;2022-09-21T14:17:32;6.28;;;1.42;;
25125;SDS011;13106;50.808;5.670;2022-09-21T14:29:52;8.43;;;1.40;;
25125;SDS011;13106;50.808;5.670;2022-09-21T14:32:22;4.97;;;1.15;;
25125;SDS011;13106;50.808;5.670;2022-09-21T14:34:50;5.57;;;1.40;;
25125;SDS011;13106;50.808;5.670;2022-09-21T14:39:45;3.45;;;1.30;;
25125;SDS011;13106;50.808;5.670;2022-09-21T14:42:17;4.05;;;1.13;;
25125;SDS011;13106;50.808;5.670;2022-09-21T14:44:44;3.95;;;1.40;;
25125;SDS011;13106;50.808;5.670;2022-09-21T14:49:43;3.97;;;1.20;;
25125;SDS011;13106;50.808;5.670;2022-09-21T15:02:38;3.72;;;1.05;;
25125;SDS011;13106;50.808;5.670;2022-09-21T15:18:32;4.95;;;1.63;;
25125;SDS011;13106;50.808;5.670;2022-09-21T15:21:03;5.65;;;1.83;;
25125;SDS011;13106;50.808;5.670;2022-09-21T15:23:38;6.00;;;2.13;;
25125;SDS011;13106;50.808;5.670;2022-09-21T15:26:15;5.05;;;1.45;;
25125;SDS011;13106;50.808;5.670;2022-09-21T15:28:46;7.07;;;1.80;;
25125;SDS011;13106;50.808;5.670;2022-09-21T15:31:14;4.57;;;1.50;;
25125;SDS011;13106;50.808;5.670;2022-09-21T15:33:41;5.43;;;1.73;;
25125;SDS011;13106;50.808;5.670;2022-09-21T15:36:10;8.45;;;1.90;;
25125;SDS011;13106;50.808;5.670;2022-09-21T15:38:36;2.92;;;1.20;;
25125;SDS011;13106;50.808;5.670;2022-09-21T15:41:03;5.50;;;1.75;;
25125;SDS011;13106;50.808;5.670;2022-09-21T15:43:29;4.15;;;1.55;;
25125;SDS011;13106;50.808;5.670;2022-09-21T15:48:25;3.42;;;1.33;;
25125;SDS011;13106;50.808;5.670;2022-09-21T15:50:58;9.70;;;2.58;;
25125;SDS011;13106;50.808;5.670;2022-09-21T15:53:26;7.50;;;1.55;;
25125;SDS011;13106;50.808;5.670;2022-09-21T15:55:54;4.77;;;1.37;;
25125;SDS011;13106;50.808;5.670;2022-09-21T16:00:50;3.50;;;1.27;;
25125;SDS011;13106;50.808;5.670;2022-09-21T16:03:20;5.22;;;1.33;;
25125;SDS011;13106;50.808;5.670;2022-09-21T16:05:49;6.60;;;1.83;;
25125;SDS011;13106;50.808;5.670;2022-09-21T16:10:46;7.55;;;1.55;;
25125;SDS011;13106;50.808;5.670;2022-09-21T16:13:20;6.13;;;1.50;;
25125;SDS011;13106;50.808;5.670;2022-09-21T16:16:07;4.25;;;1.48;;
25125;SDS011;13106;50.808;5.670;2022-09-21T16:18:47;4.65;;;1.40;;
25125;SDS011;13106;50.808;5.670;2022-09-21T16:23:49;4.35;;;1.23;;
25125;SDS011;13106;50.808;5.670;2022-09-21T16:26:20;6.20;;;1.35;;
25125;SDS011;13106;50.808;5.670;2022-09-21T16:28:47;7.25;;;1.30;;
25125;SDS011;13106;50.808;5.670;2022-09-21T16:31:24;5.90;;;1.25;;
25125;SDS011;13106;50.808;5.670;2022-09-21T16:38:58;7.70;;;1.50;;
25125;SDS011;13106;50.808;5.670;2022-09-21T16:41:30;6.57;;;1.58;;
25125;SDS011;13106;50.808;5.670;2022-09-21T16:43:57;5.60;;;1.35;;
25125;SDS011;13106;50.808;5.670;2022-09-21T16:46:24;4.88;;;1.40;;
25125;SDS011;13106;50.808;5.670;2022-09-21T16:48:51;6.90;;;1.40;;
25125;SDS011;13106;50.808;5.670;2022-09-21T16:51:21;6.57;;;1.70;;
25125;SDS011;13106;50.808;5.670;2022-09-21T16:53:52;2.50;;;1.20;;
25125;SDS011;13106;50.808;5.670;2022-09-21T16:56:18;6.00;;;1.33;;
25125;SDS011;13106;50.808;5.670;2022-09-21T16:58:44;7.20;;;1.67;;
25125;SDS011;13106;50.808;5.670;2022-09-21T17:01:12;6.93;;;1.33;;
25125;SDS011;13106;50.808;5.670;2022-09-21T17:03:39;6.18;;;1.45;;
25125;SDS011;13106;50.808;5.670;2022-09-21T17:06:16;4.68;;;1.13;;
25125;SDS011;13106;50.808;5.670;2022-09-21T17:08:42;2.78;;;1.40;;
25125;SDS011;13106;50.808;5.670;2022-09-21T17:11:08;5.93;;;1.50;;
25125;SDS011;13106;50.808;5.670;2022-09-21T17:13:34;7.07;;;1.50;;
25125;SDS011;13106;50.808;5.670;2022-09-21T17:16:01;3.72;;;1.40;;
25125;SDS011;13106;50.808;5.670;2022-09-21T17:18:28;6.43;;;1.33;;
25125;SDS011;13106;50.808;5.670;2022-09-21T17:20:54;4.05;;;1.42;;
25125;SDS011;13106;50.808;5.670;2022-09-21T17:23:20;4.75;;;1.10;;
25125;SDS011;13106;50.808;5.670;2022-09-21T17:25:51;4.25;;;1.40;;
25125;SDS011;13106;50.808;5.670;2022-09-21T17:28:19;6.10;;;1.77;;
25125;SDS011;13106;50.808;5.670;2022-09-21T17:30:49;4.18;;;1.35;;
25125;SDS011;13106;50.808;5.670;2022-09-21T17:33:15;4.45;;;1.60;;
25125;SDS011;13106;50.808;5.670;2022-09-21T17:35:43;5.53;;;1.95;;
25125;SDS011;13106;50.808;5.670;2022-09-21T17:38:09;5.70;;;2.15;;
25125;SDS011;13106;50.808;5.670;2022-09-21T17:40:36;7.03;;;1.85;;
25125;SDS011;13106;50.808;5.670;2022-09-21T17:43:05;6.22;;;1.60;;
25125;SDS011;13106;50.808;5.670;2022-09-21T17:45:39;5.82;;;1.65;;
25125;SDS011;13106;50.808;5.670;2022-09-21T17:48:11;4.95;;;1.90;;
25125;SDS011;13106;50.808;5.670;2022-09-21T17:50:37;5.53;;;1.75;;
25125;SDS011;13106;50.808;5.670;2022-09-21T17:53:03;6.45;;;1.80;;
25125;SDS011;13106;50.808;5.670;2022-09-21T17:55:49;2.75;;;1.90;;
25125;SDS011;13106;50.808;5.670;2022-09-21T18:03:21;6.60;;;2.45;;
25125;SDS011;13106;50.808;5.670;2022-09-21T18:05:48;5.28;;;2.20;;
25125;SDS011;13106;50.808;5.670;2022-09-21T18:08:15;6.20;;;2.47;;
25125;SDS011;13106;50.808;5.670;2022-09-21T18:10:43;6.28;;;2.35;;
25125;SDS011;13106;50.808;5.670;2022-09-21T18:13:22;5.63;;;2.45;;
25125;SDS011;13106;50.808;5.670;2022-09-21T18:15:52;4.65;;;2.17;;
25125;SDS011;13106;50.808;5.670;2022-09-21T18:18:29;5.97;;;2.65;;
25125;SDS011;13106;50.808;5.670;2022-09-21T18:21:06;8.13;;;2.45;;
25125;SDS011;13106;50.808;5.670;2022-09-21T18:26:09;4.05;;;1.95;;
25125;SDS011;13106;50.808;5.670;2022-09-21T18:36:15;5.28;;;2.00;;
25125;SDS011;13106;50.808;5.670;2022-09-21T18:38:54;6.43;;;2.75;;